Time;durP1;ratioP1;P1;durP2;ratioP2;P2;SDS_P1;SDS_P2;PMS_P1;PMS_P2;Temp;Humidity;BMP_temperature;BMP_pressure;BME280_temperature;BME280_humidity;BME280_pressure;Samples;Min_cycle;Max_cycle;Signal;HPM_P1;HPM_P2
2022/12/29 00:02:18;;;;;;;5.60;4.30;;;10.30;92.30;;;;;;5043757;28;20052;-82
2022/12/29 00:04:43;;;;;;;5.10;4.30;;;10.30;92.30;;;;;;5045544;28;20056;-82
2022/12/29 00:07:09;;;;;;;5.07;4.32;;;10.30;92.50;;;;;;5048009;28;20048;-83
2022/12/29 00:09:36;;;;;;;7.30;4.90;;;10.20;92.60;;;;;;5045298;28;20099;-83
2022/12/29 00:12:03;;;;;;;6.10;5.10;;;10.20;92.80;;;;;;5061991;28;20052;-83
2022/12/29 00:17:13;;;;;;;5.88;5.28;;;10.10;93.30;;;;;;5047286;28;20183;-81
2022/12/29 00:36:31;;;;;;;5.75;5.25;;;10.10;94.00;;;;;;5046525;28;20127;-83
2022/12/29 00:44:37;;;;;;;6.88;5.43;;;10.10;93.70;;;;;;5046841;28;20127;-82
2022/12/29 00:47:04;;;;;;;5.97;4.88;;;10.10;93.60;;;;;;5045422;28;20110;-82
2022/12/29 00:49:30;;;;;;;8.70;5.00;;;10.10;93.60;;;;;;5061179;28;20044;-82
2022/12/29 00:52:12;;;;;;;7.05;4.95;;;10.20;93.40;;;;;;5048683;28;20039;-82
2022/12/29 00:54:39;;;;;;;6.47;4.60;;;10.30;93.40;;;;;;5049246;28;20076;-83
2022/12/29 00:57:07;;;;;;;7.47;4.95;;;10.20;93.40;;;;;;5047855;28;20045;-84
2022/12/29 00:59:37;;;;;;;7.63;5.00;;;10.30;93.40;;;;;;5052383;28;20075;-82
2022/12/29 01:02:03;;;;;;;8.18;5.07;;;10.20;93.40;;;;;;5055024;28;20086;-83
2022/12/29 01:04:29;;;;;;;5.47;4.30;;;10.30;93.30;;;;;;5041571;28;20051;-82
2022/12/29 01:06:54;;;;;;;8.20;4.68;;;10.30;93.20;;;;;;5051795;28;20116;-82
2022/12/29 01:12:06;;;;;;;10.45;4.28;;;10.30;93.10;;;;;;5056809;28;20080;-83
2022/12/29 01:14:32;;;;;;;4.72;4.22;;;10.30;93.10;;;;;;5051004;28;20048;-85
2022/12/29 01:16:58;;;;;;;6.68;4.15;;;10.40;92.90;;;;;;5059962;28;20091;-82
2022/12/29 01:19:24;;;;;;;5.05;4.53;;;10.40;92.90;;;;;;5049560;28;20071;-83
2022/12/29 01:21:50;;;;;;;5.88;4.45;;;10.40;92.80;;;;;;5048008;28;20029;-85
2022/12/29 01:24:17;;;;;;;4.70;4.00;;;10.40;92.60;;;;;;5053562;28;20049;-82
2022/12/29 01:26:43;;;;;;;5.55;4.30;;;10.50;92.60;;;;;;5045829;28;20049;-82
2022/12/29 01:29:09;;;;;;;6.47;4.40;;;10.50;92.60;;;;;;5049927;28;20045;-82
2022/12/29 01:31:35;;;;;;;5.63;4.10;;;10.50;92.50;;;;;;5048619;28;20105;-85
2022/12/29 01:34:00;;;;;;;6.57;4.00;;;10.50;92.50;;;;;;5047988;28;20126;-82
2022/12/29 01:36:26;;;;;;;4.70;4.10;;;10.50;92.50;;;;;;5033373;28;20504;-82
2022/12/29 01:38:52;;;;;;;6.13;3.97;;;10.50;92.40;;;;;;5030535;28;20044;-83
2022/12/29 01:41:17;;;;;;;4.30;3.58;;;10.40;92.40;;;;;;5031113;28;20052;-82
2022/12/29 01:43:56;;;;;;;3.92;3.53;;;10.40;92.40;;;;;;5044445;28;20503;-85
2022/12/29 01:46:31;;;;;;;5.22;3.97;;;10.50;92.10;;;;;;5054431;28;20049;-83
2022/12/29 01:49:07;;;;;;;4.68;3.53;;;10.50;92.10;;;;;;5048782;28;20408;-82
2022/12/29 01:51:38;;;;;;;5.47;3.72;;;10.50;92.10;;;;;;5065175;28;20074;-82
2022/12/29 01:54:09;;;;;;;3.58;3.20;;;10.50;92.10;;;;;;5047535;28;20049;-81
2022/12/29 01:56:36;;;;;;;4.70;3.20;;;10.60;92.00;;;;;;5052732;28;20079;-82
2022/12/29 01:59:06;;;;;;;5.13;3.50;;;10.60;91.60;;;;;;5046965;28;21080;-82
2022/12/29 02:01:32;;;;;;;4.45;3.63;;;10.60;91.70;;;;;;5027674;28;20094;-81
2022/12/29 02:03:58;;;;;;;4.65;3.28;;;10.60;91.50;;;;;;5031101;28;20049;-83
2022/12/29 02:06:32;;;;;;;3.65;3.30;;;10.60;91.60;;;;;;5049618;28;20051;-83
2022/12/29 02:08:59;;;;;;;4.38;3.00;;;10.60;91.50;;;;;;5038724;28;21801;-81
2022/12/29 02:11:28;;;;;;;4.78;3.05;;;10.70;91.40;;;;;;5046883;28;20033;-83
2022/12/29 02:13:53;;;;;;;;;;;10.70;91.20;;;;;;5047991;28;20156;-82
2022/12/29 02:16:48;;;;;;;5.40;3.20;;;10.70;91.10;;;;;;5044285;28;19990;-82
2022/12/29 02:19:39;;;;;;;5.53;3.28;;;10.70;91.10;;;;;;5044056;28;20512;-82
2022/12/29 02:22:39;;;;;;;4.28;3.08;;;10.70;91.00;;;;;;5031468;28;20057;-83
2022/12/29 02:25:42;;;;;;;8.93;3.50;;;10.80;90.90;;;;;;5050525;28;20053;-82
2022/12/29 02:28:19;;;;;;;5.22;3.28;;;10.80;90.80;;;;;;5045305;28;20040;-83
2022/12/29 02:31:02;;;;;;;5.75;3.28;;;10.70;90.70;;;;;;5054789;28;20048;-82
2022/12/29 02:33:52;;;;;;;7.40;3.53;;;10.80;90.80;;;;;;5041384;28;20044;-82
2022/12/29 02:36:42;;;;;;;6.60;3.47;;;10.80;90.80;;;;;;5047007;28;20036;-82
2022/12/29 02:40:02;;;;;;;5.53;3.30;;;10.80;90.90;;;;;;5042586;28;20517;-83
2022/12/29 02:42:45;;;;;;;4.85;3.17;;;10.80;91.10;;;;;;5041082;28;20412;-83
2022/12/29 02:45:15;;;;;;;4.70;3.00;;;10.70;91.30;;;;;;5038988;28;20049;-83
2022/12/29 02:47:53;;;;;;;3.88;2.90;;;10.60;91.70;;;;;;5056942;28;20087;-84
2022/12/29 02:50:38;;;;;;;4.40;3.13;;;10.60;91.90;;;;;;5044349;28;20504;-84
2022/12/29 02:53:15;;;;;;;6.13;2.95;;;10.50;92.10;;;;;;5045339;28;20051;-83
2022/12/29 02:55:48;;;;;;;4.97;3.30;;;10.50;92.10;;;;;;5045227;28;20504;-83
2022/12/29 02:58:19;;;;;;;5.00;3.08;;;10.50;92.10;;;;;;5044221;28;20055;-83
2022/12/29 03:01:03;;;;;;;5.25;3.00;;;10.50;92.00;;;;;;5034180;28;20095;-83
2022/12/29 03:03:32;;;;;;;3.75;3.10;;;10.50;92.10;;;;;;5045072;28;20443;-85
2022/12/29 03:06:08;;;;;;;4.57;2.80;;;10.50;92.20;;;;;;5040368;28;20033;-82
2022/12/29 03:08:54;;;;;;;5.25;2.55;;;10.50;92.10;;;;;;5045691;28;20037;-83
2022/12/29 03:17:33;;;;;;;4.57;2.03;;;10.60;91.70;;;;;;5042349;28;20566;-82
2022/12/29 03:20:06;;;;;;;3.95;1.92;;;10.60;91.50;;;;;;5034673;28;20039;-81
2022/12/29 03:22:36;;;;;;;3.05;2.13;;;10.60;91.60;;;;;;5044493;28;20497;-82
2022/12/29 03:25:23;;;;;;;2.38;2.17;;;10.60;91.60;;;;;;5043987;28;20048;-82
2022/12/29 03:28:01;;;;;;;2.22;1.90;;;10.60;91.50;;;;;;5044202;28;20573;-83
2022/12/29 03:30:29;;;;;;;2.33;1.80;;;10.60;91.40;;;;;;5043056;28;20071;-83
2022/12/29 03:32:58;;;;;;;3.03;1.73;;;10.60;91.30;;;;;;5044123;28;20048;-82
2022/12/29 03:35:28;;;;;;;2.75;1.75;;;10.60;91.30;;;;;;5042491;28;20357;-84
2022/12/29 03:38:25;;;;;;;3.30;1.88;;;10.60;91.40;;;;;;5023265;28;20405;-83
2022/12/29 03:40:58;;;;;;;3.92;1.70;;;10.60;91.30;;;;;;5040708;28;20088;-82
2022/12/29 03:43:25;;;;;;;3.92;1.90;;;10.50;91.40;;;;;;5041199;28;20047;-84
2022/12/29 03:45:51;;;;;;;2.83;1.55;;;10.50;91.40;;;;;;5041205;28;20036;-82
2022/12/29 03:48:16;;;;;;;2.13;1.70;;;10.60;91.30;;;;;;5043670;28;20048;-81
2022/12/29 03:50:42;;;;;;;2.10;1.83;;;10.50;91.20;;;;;;5046621;28;20055;-85
2022/12/29 03:53:07;;;;;;;3.15;1.80;;;10.40;91.20;;;;;;5050980;28;20431;-81
2022/12/29 03:55:33;;;;;;;3.55;1.55;;;10.40;91.20;;;;;;5049318;28;20151;-82
2022/12/29 03:57:59;;;;;;;4.05;1.80;;;10.50;91.10;;;;;;5048302;28;20032;-82
2022/12/29 04:00:24;;;;;;;3.20;1.80;;;10.40;91.20;;;;;;5050441;28;20157;-82
2022/12/29 04:02:50;;;;;;;3.20;1.58;;;10.40;91.20;;;;;;5050338;28;20043;-82
2022/12/29 04:05:15;;;;;;;4.05;1.65;;;10.50;91.20;;;;;;5050343;28;20032;-83
2022/12/29 04:07:41;;;;;;;1.98;1.52;;;10.40;91.00;;;;;;5046795;28;20043;-83
2022/12/29 04:10:07;;;;;;;3.20;1.73;;;10.50;90.90;;;;;;5029595;28;20052;-82
2022/12/29 04:12:33;;;;;;;3.92;1.70;;;10.50;91.00;;;;;;5049873;28;20072;-84
2022/12/29 04:14:58;;;;;;;3.50;1.50;;;10.50;90.70;;;;;;5049384;28;20396;-82
2022/12/29 04:17:24;;;;;;;4.55;1.70;;;10.50;90.50;;;;;;5035201;28;20037;-83
2022/12/29 04:19:50;;;;;;;2.83;1.20;;;10.50;90.70;;;;;;5049288;28;20045;-83
2022/12/29 04:22:15;;;;;;;3.92;1.23;;;10.50;90.40;;;;;;5049846;28;20043;-82
2022/12/29 04:24:41;;;;;;;2.47;1.27;;;10.40;90.40;;;;;;5045493;28;20102;-84
2022/12/29 04:27:06;;;;;;;4.38;1.40;;;10.50;90.30;;;;;;5034262;28;20068;-83
2022/12/29 04:29:32;;;;;;;5.78;1.50;;;10.40;90.20;;;;;;5048883;28;20512;-82
2022/12/29 04:31:57;;;;;;;5.50;1.60;;;10.40;90.30;;;;;;5048070;28;20036;-83
2022/12/29 04:34:23;;;;;;;3.72;1.35;;;10.40;90.20;;;;;;5050812;28;20087;-83
2022/12/29 04:36:49;;;;;;;6.45;1.23;;;10.50;89.80;;;;;;5044885;28;20045;-83
2022/12/29 04:39:14;;;;;;;4.35;1.30;;;10.50;89.80;;;;;;5046759;28;21058;-82
2022/12/29 04:41:40;;;;;;;3.70;1.10;;;10.40;89.40;;;;;;5045598;28;20052;-83
2022/12/29 04:44:05;;;;;;;5.35;1.45;;;10.40;88.80;;;;;;5045921;28;20638;-82
2022/12/29 04:46:31;;;;;;;3.45;1.17;;;10.30;89.00;;;;;;5042560;28;20076;-83
2022/12/29 04:48:57;;;;;;;3.75;1.05;;;10.30;89.20;;;;;;5029887;28;20057;-82
2022/12/29 04:51:22;;;;;;;4.60;1.00;;;10.10;89.70;;;;;;5045577;28;20134;-82
2022/12/29 04:53:48;;;;;;;5.20;1.02;;;10.10;90.00;;;;;;5050181;28;20157;-81
2022/12/29 04:56:13;;;;;;;5.10;0.95;;;10.10;90.00;;;;;;5053623;28;20107;-82
2022/12/29 04:58:39;;;;;;;4.00;1.10;;;10.00;90.10;;;;;;5046571;28;20123;-82
2022/12/29 05:01:04;;;;;;;3.00;1.00;;;10.00;90.20;;;;;;5052737;28;20036;-81
2022/12/29 05:03:30;;;;;;;3.58;1.00;;;10.00;90.30;;;;;;5048548;28;20875;-82
2022/12/29 05:05:57;;;;;;;4.32;1.17;;;10.00;90.40;;;;;;5043457;28;20053;-81
2022/12/29 05:08:23;;;;;;;7.93;1.50;;;9.90;90.50;;;;;;5046614;28;20055;-84
2022/12/29 05:10:50;;;;;;;6.22;1.65;;;9.80;90.50;;;;;;5044758;28;20064;-82
2022/12/29 05:13:16;;;;;;;4.32;1.48;;;9.90;90.30;;;;;;5029409;28;20052;-82
2022/12/29 05:15:49;;;;;;;5.30;1.30;;;9.90;90.10;;;;;;5027560;28;20995;-81
2022/12/29 05:18:14;;;;;;;6.25;1.60;;;9.80;90.20;;;;;;5048911;28;20627;-81
2022/12/29 05:20:40;;;;;;;5.07;1.30;;;9.70;90.20;;;;;;5047139;28;20078;-81
2022/12/29 05:23:06;;;;;;;4.70;1.60;;;9.70;90.10;;;;;;5046034;28;20041;-81
2022/12/29 05:25:31;;;;;;;11.25;1.90;;;9.70;90.20;;;;;;5048273;28;20056;-81
2022/12/29 05:27:57;;;;;;;3.70;1.23;;;9.60;90.20;;;;;;5044818;28;20053;-82
2022/12/29 05:30:22;;;;;;;8.32;1.80;;;9.60;90.20;;;;;;5050520;28;20667;-82
2022/12/29 05:32:48;;;;;;;7.50;1.67;;;9.50;90.30;;;;;;5045314;28;20123;-81
2022/12/29 05:35:13;;;;;;;9.00;1.50;;;9.50;90.30;;;;;;5043044;28;20053;-82
2022/12/29 05:37:39;;;;;;;9.30;1.58;;;9.50;90.30;;;;;;5045063;28;20045;-82
2022/12/29 05:40:05;;;;;;;9.60;2.25;;;9.50;90.30;;;;;;5046811;28;20040;-82
2022/12/29 05:42:34;;;;;;;6.18;1.75;;;9.40;90.30;;;;;;5046630;28;20648;-83
2022/12/29 05:44:59;;;;;;;10.90;1.83;;;9.40;90.30;;;;;;5049605;28;20049;-82
2022/12/29 05:47:25;;;;;;;8.32;1.83;;;9.50;90.30;;;;;;5042984;28;20068;-81
2022/12/29 05:49:51;;;;;;;8.90;1.75;;;9.40;90.30;;;;;;5043373;28;20048;-81
2022/12/29 05:52:17;;;;;;;8.57;1.85;;;9.40;90.30;;;;;;5033888;28;20044;-84
2022/12/29 05:54:42;;;;;;;6.57;1.70;;;9.40;90.30;;;;;;5045783;28;20397;-83
2022/12/29 05:57:08;;;;;;;7.45;1.30;;;9.40;90.30;;;;;;5046621;28;20118;-82
2022/12/29 05:59:34;;;;;;;10.73;1.75;;;9.40;90.30;;;;;;5043579;28;20043;-81
2022/12/29 06:01:59;;;;;;;7.18;1.80;;;9.30;90.40;;;;;;5045881;28;20480;-82
2022/12/29 06:04:25;;;;;;;7.18;1.58;;;9.30;90.40;;;;;;5051472;28;20044;-83
2022/12/29 06:06:51;;;;;;;10.05;1.48;;;9.30;90.40;;;;;;5045514;28;20126;-83
2022/12/29 06:09:16;;;;;;;8.85;1.55;;;9.40;90.30;;;;;;5026812;28;20142;-82
2022/12/29 06:11:42;;;;;;;6.00;1.65;;;9.40;90.20;;;;;;5026996;28;21819;-82
2022/12/29 06:14:08;;;;;;;10.63;1.58;;;9.40;90.20;;;;;;5056872;28;20074;-81
2022/12/29 06:16:37;;;;;;;7.75;1.55;;;9.40;90.00;;;;;;5024758;28;21792;-82
2022/12/29 06:19:02;;;;;;;6.70;1.30;;;9.40;90.00;;;;;;5044121;28;20044;-81
2022/12/29 06:21:28;;;;;;;3.78;1.30;;;9.50;89.60;;;;;;5045643;28;20037;-81
2022/12/29 06:23:53;;;;;;;10.80;2.00;;;9.40;89.50;;;;;;5044893;28;20045;-82
2022/12/29 06:26:19;;;;;;;6.00;1.65;;;9.40;89.40;;;;;;5045910;28;20086;-82
2022/12/29 06:28:45;;;;;;;11.18;1.42;;;9.40;88.90;;;;;;5045602;28;20043;-82
2022/12/29 06:31:11;;;;;;;13.82;1.98;;;9.40;88.70;;;;;;5044390;28;20040;-82
2022/12/29 06:33:37;;;;;;;8.98;1.77;;;9.40;88.60;;;;;;5057416;28;20037;-85
2022/12/29 06:36:03;;;;;;;7.28;1.65;;;9.40;88.50;;;;;;5045484;28;20484;-81
2022/12/29 06:38:29;;;;;;;10.60;1.73;;;9.50;88.30;;;;;;5038796;28;20033;-87
2022/12/29 06:40:54;;;;;;;9.70;1.75;;;9.50;88.10;;;;;;5048244;28;20048;-85
2022/12/29 06:43:20;;;;;;;11.75;1.45;;;9.40;87.60;;;;;;5046385;28;20407;-84
2022/12/29 06:45:45;;;;;;;8.38;1.85;;;9.40;87.70;;;;;;5051459;28;20045;-84
2022/12/29 06:48:11;;;;;;;13.90;1.83;;;9.40;87.50;;;;;;5049214;28;20045;-85
2022/12/29 06:50:37;;;;;;;12.65;2.08;;;9.40;87.70;;;;;;5045755;28;20041;-82
2022/12/29 06:53:03;;;;;;;14.90;2.00;;;9.40;87.50;;;;;;5049111;28;20112;-82
2022/12/29 06:55:28;;;;;;;11.77;1.75;;;9.40;87.50;;;;;;5045555;28;20053;-83
2022/12/29 06:57:58;;;;;;;8.50;1.52;;;9.40;87.50;;;;;;5053673;28;20036;-83
2022/12/29 07:00:24;;;;;;;12.50;2.10;;;9.40;87.20;;;;;;5051265;28;20505;-83
2022/12/29 07:02:50;;;;;;;17.48;1.98;;;9.30;87.40;;;;;;5053791;28;20522;-82
2022/12/29 07:05:16;;;;;;;7.90;1.67;;;9.30;87.90;;;;;;5054081;28;20045;-82
2022/12/29 07:07:41;;;;;;;9.15;1.90;;;9.20;88.00;;;;;;5048928;28;20033;-82
2022/12/29 07:10:07;;;;;;;9.77;2.13;;;9.20;88.20;;;;;;5050593;28;20498;-81
2022/12/29 07:12:33;;;;;;;14.85;2.13;;;9.20;88.00;;;;;;5066365;28;20037;-82
2022/12/29 07:14:58;;;;;;;9.05;1.70;;;9.20;88.00;;;;;;5052759;28;20032;-84
2022/12/29 07:17:24;;;;;;;12.05;1.90;;;9.30;87.50;;;;;;5049646;28;20044;-82
2022/12/29 07:19:49;;;;;;;17.08;2.33;;;9.30;87.40;;;;;;5055340;28;20051;-81
2022/12/29 07:22:15;;;;;;;11.23;2.15;;;9.40;86.60;;;;;;5051696;28;20097;-83
2022/12/29 07:24:41;;;;;;;11.55;1.88;;;9.40;86.70;;;;;;5049006;28;20060;-82
2022/12/29 07:27:06;;;;;;;10.02;1.77;;;9.40;85.90;;;;;;5045486;28;20147;-83
2022/12/29 07:29:32;;;;;;;10.15;1.95;;;9.40;86.30;;;;;;5050670;28;20036;-82
2022/12/29 07:31:58;;;;;;;16.27;2.15;;;9.40;86.30;;;;;;5051920;28;20400;-81
2022/12/29 07:34:23;;;;;;;13.32;2.45;;;9.40;86.30;;;;;;5059253;28;20070;-86
2022/12/29 07:36:49;;;;;;;11.85;1.85;;;9.50;86.50;;;;;;5048613;28;20041;-81
2022/12/29 07:39:14;;;;;;;15.82;2.50;;;9.50;86.60;;;;;;5055533;28;20048;-81
2022/12/29 07:41:40;;;;;;;13.98;2.22;;;9.50;86.30;;;;;;5048280;28;20044;-82
2022/12/29 07:44:06;;;;;;;14.23;2.10;;;9.50;86.10;;;;;;5045820;28;20040;-80
2022/12/29 07:46:31;;;;;;;13.73;2.60;;;9.60;86.00;;;;;;5064415;28;20079;-81
2022/12/29 07:48:57;;;;;;;16.48;2.60;;;9.60;86.30;;;;;;5056518;28;20047;-81
2022/12/29 07:51:22;;;;;;;18.15;2.47;;;9.60;86.50;;;;;;5072264;28;20090;-81
2022/12/29 07:53:48;;;;;;;9.48;2.03;;;9.60;86.70;;;;;;5054543;28;21150;-81
2022/12/29 07:56:13;;;;;;;12.73;1.77;;;9.60;86.30;;;;;;5049287;28;20039;-83
2022/12/29 07:58:39;;;;;;;15.55;2.42;;;9.60;86.70;;;;;;5053685;28;20117;-83
2022/12/29 08:01:05;;;;;;;16.02;2.50;;;9.60;86.50;;;;;;5048305;28;20044;-82
2022/12/29 08:03:30;;;;;;;15.40;2.35;;;9.60;86.30;;;;;;5055945;28;20036;-85
2022/12/29 08:05:57;;;;;;;10.02;2.10;;;9.50;86.60;;;;;;5055410;28;20055;-85
2022/12/29 08:08:22;;;;;;;10.82;2.53;;;9.60;86.20;;;;;;5054565;28;20028;-84
2022/12/29 08:10:48;;;;;;;11.43;1.60;;;9.60;86.40;;;;;;5054088;28;20079;-85
2022/12/29 08:13:15;;;;;;;10.10;1.88;;;9.60;85.70;;;;;;5053444;28;20052;-87
2022/12/29 08:15:40;;;;;;;13.85;2.30;;;9.60;86.00;;;;;;5034134;28;20087;-82
2022/12/29 08:18:06;;;;;;;21.55;2.63;;;9.60;85.50;;;;;;5059652;28;20131;-85
2022/12/29 08:20:32;;;;;;;16.08;2.60;;;9.60;85.30;;;;;;5047847;28;20566;-82
2022/12/29 08:22:57;;;;;;;15.98;2.17;;;9.60;85.50;;;;;;5042591;28;20115;-81
2022/12/29 08:25:23;;;;;;;13.73;2.35;;;9.60;85.00;;;;;;5049417;28;20103;-86
2022/12/29 08:27:48;;;;;;;9.75;2.00;;;9.60;85.20;;;;;;5052969;28;20519;-85
2022/12/29 08:30:14;;;;;;;14.65;1.95;;;9.60;84.50;;;;;;5049756;28;20048;-84
2022/12/29 08:32:40;;;;;;;17.67;2.50;;;9.70;84.00;;;;;;5045218;28;20508;-86
2022/12/29 08:35:06;;;;;;;14.95;2.40;;;9.70;84.50;;;;;;5053974;28;20075;-83
2022/12/29 08:37:33;;;;;;;15.25;2.85;;;9.70;83.80;;;;;;5069357;28;20039;-86
2022/12/29 08:39:59;;;;;;;21.50;2.97;;;9.70;83.80;;;;;;5063437;28;20040;-81
2022/12/29 08:42:30;;;;;;;15.00;2.22;;;9.70;83.70;;;;;;5063490;28;20168;-83
2022/12/29 08:44:57;;;;;;;17.58;2.72;;;9.70;83.80;;;;;;5047630;28;20086;-85
2022/12/29 08:47:22;;;;;;;18.10;2.80;;;9.70;83.80;;;;;;5058915;28;20033;-82
2022/12/29 08:49:48;;;;;;;18.73;3.38;;;9.70;83.80;;;;;;5053840;28;20040;-85
2022/12/29 08:52:16;;;;;;;18.35;2.80;;;9.70;83.90;;;;;;5057951;28;20047;-85
2022/12/29 08:54:42;;;;;;;14.60;2.40;;;9.70;84.00;;;;;;5035529;28;20037;-82
2022/12/29 08:57:07;;;;;;;20.70;2.72;;;9.70;84.20;;;;;;5053611;28;20041;-84
2022/12/29 08:59:33;;;;;;;17.63;3.08;;;9.70;83.80;;;;;;5051782;28;20515;-83
2022/12/29 09:02:00;;;;;;;14.90;2.60;;;9.70;83.90;;;;;;5026657;28;20037;-83
2022/12/29 09:04:27;;;;;;;14.40;3.03;;;9.80;83.40;;;;;;5055538;28;20071;-82
2022/12/29 09:06:53;;;;;;;19.92;2.67;;;9.80;83.40;;;;;;5048650;28;20418;-82
2022/12/29 09:09:19;;;;;;;16.23;2.55;;;9.80;83.40;;;;;;5055602;28;20066;-84
2022/12/29 09:11:45;;;;;;;14.75;2.60;;;9.80;83.30;;;;;;5053865;28;20119;-85
2022/12/29 09:14:11;;;;;;;14.63;2.25;;;9.80;83.30;;;;;;5051665;28;20131;-83
2022/12/29 09:16:37;;;;;;;15.88;2.88;;;9.80;84.20;;;;;;5050407;28;20089;-81
2022/12/29 09:19:03;;;;;;;13.63;2.30;;;9.80;85.00;;;;;;5046265;28;20804;-80
2022/12/29 09:21:29;;;;;;;15.85;2.50;;;9.70;85.00;;;;;;5048339;28;20477;-86
2022/12/29 09:23:54;;;;;;;18.13;2.63;;;9.60;85.60;;;;;;5044795;28;20830;-84
2022/12/29 09:26:20;;;;;;;16.55;2.92;;;9.50;86.10;;;;;;5047652;28;20127;-82
2022/12/29 09:28:47;;;;;;;22.23;2.55;;;9.40;86.60;;;;;;5044202;28;20052;-82
2022/12/29 09:31:12;;;;;;;13.48;2.10;;;9.40;86.90;;;;;;5050217;28;20048;-86
2022/12/29 09:33:38;;;;;;;14.38;2.83;;;9.40;87.10;;;;;;5039258;28;20097;-82
2022/12/29 09:36:04;;;;;;;15.43;2.42;;;9.40;87.20;;;;;;5043990;28;20044;-85
2022/12/29 09:38:29;;;;;;;14.55;2.55;;;9.40;87.70;;;;;;5051966;28;20051;-84
2022/12/29 09:41:00;;;;;;;18.27;2.97;;;9.40;88.00;;;;;;5049896;28;20127;-82
2022/12/29 09:43:32;;;;;;;23.30;3.10;;;9.40;87.60;;;;;;5046198;28;20570;-83
2022/12/29 09:46:09;;;;;;;16.90;2.70;;;9.30;87.80;;;;;;5032786;28;20054;-82
2022/12/29 09:48:44;;;;;;;18.52;2.90;;;9.40;87.50;;;;;;5048210;28;20118;-84
2022/12/29 09:51:17;;;;;;;15.93;3.03;;;9.40;87.50;;;;;;5053396;28;20032;-85
2022/12/29 09:53:48;;;;;;;15.85;2.47;;;9.40;87.10;;;;;;5046575;28;20040;-83
2022/12/29 09:56:21;;;;;;;16.83;2.60;;;9.50;86.90;;;;;;5050102;28;20047;-88
2022/12/29 09:59:13;;;;;;;17.30;2.75;;;9.60;86.40;;;;;;5062724;28;20058;-82
2022/12/29 10:01:48;;;;;;;14.70;2.65;;;9.70;86.40;;;;;;5037558;28;20492;-84
2022/12/29 10:04:14;;;;;;;14.82;2.67;;;9.70;86.40;;;;;;5038468;28;20037;-85
2022/12/29 10:07:11;;;;;;;12.80;2.17;;;9.70;86.90;;;;;;5047327;28;20047;-80
2022/12/29 10:10:03;;;;;;;19.20;2.50;;;9.60;86.90;;;;;;5047459;28;20048;-82
2022/12/29 10:12:55;;;;;;;17.55;2.78;;;9.60;87.40;;;;;;5049239;28;20070;-81
2022/12/29 10:15:50;;;;;;;14.85;2.55;;;9.50;87.80;;;;;;5048252;28;20053;-83
2022/12/29 10:18:29;;;;;;;15.50;2.60;;;9.40;88.30;;;;;;5048713;28;20042;-84
2022/12/29 10:21:30;;;;;;;18.92;2.50;;;9.40;89.30;;;;;;5052530;28;20139;-82
2022/12/29 10:23:56;;;;;;;11.27;2.28;;;9.30;90.00;;;;;;5055289;28;20234;-85
2022/12/29 10:26:33;;;;;;;16.00;2.80;;;9.20;90.00;;;;;;5046850;28;20106;-87
2022/12/29 10:29:13;;;;;;;16.85;2.70;;;9.20;90.30;;;;;;5061846;28;20112;-85
2022/12/29 10:31:50;;;;;;;18.00;2.47;;;9.10;90.40;;;;;;5045875;28;20037;-83
2022/12/29 10:34:25;;;;;;;10.40;2.40;;;9.10;90.50;;;;;;5053905;28;20098;-83
2022/12/29 10:36:58;;;;;;;15.48;3.05;;;9.10;90.90;;;;;;5061752;28;20122;-83
2022/12/29 10:39:30;;;;;;;13.93;2.50;;;9.10;90.80;;;;;;5057680;28;20044;-84
2022/12/29 10:42:03;;;;;;;12.52;2.53;;;9.00;91.00;;;;;;5050294;28;20432;-81
2022/12/29 10:44:31;;;;;;;20.77;3.10;;;9.00;91.30;;;;;;5051456;28;20836;-86
2022/12/29 10:47:07;;;;;;;17.50;2.70;;;8.90;91.40;;;;;;5067513;28;20459;-85
2022/12/29 10:49:40;;;;;;;14.65;2.40;;;8.90;91.60;;;;;;5051947;28;20048;-86
2022/12/29 10:52:06;;;;;;;10.52;2.40;;;8.90;91.70;;;;;;5055873;28;20051;-87
2022/12/29 10:54:51;;;;;;;19.38;2.50;;;8.90;91.50;;;;;;5055165;28;20051;-85
2022/12/29 10:57:39;;;;;;;15.00;2.30;;;9.00;91.20;;;;;;5042726;28;20123;-85
2022/12/29 11:00:22;;;;;;;11.45;2.53;;;9.10;91.00;;;;;;5039531;28;20048;-85
2022/12/29 11:03:25;;;;;;;14.35;2.38;;;9.00;91.40;;;;;;5072596;28;20059;-82
2022/12/29 11:06:00;;;;;;;15.68;2.50;;;9.00;91.60;;;;;;5040573;28;20856;-85
2022/12/29 11:08:31;;;;;;;13.20;2.75;;;8.90;91.50;;;;;;5042254;28;20049;-84
2022/12/29 11:11:02;;;;;;;11.98;2.13;;;8.90;91.70;;;;;;5055411;28;20052;-84
2022/12/29 11:13:31;;;;;;;11.35;1.90;;;8.90;91.50;;;;;;5050289;28;20052;-85
2022/12/29 11:15:57;;;;;;;11.02;1.88;;;8.90;91.70;;;;;;5049402;28;20111;-83
2022/12/29 11:18:26;;;;;;;7.25;2.05;;;8.90;91.70;;;;;;5048555;28;20511;-84
2022/12/29 11:20:55;;;;;;;14.02;2.47;;;8.90;91.90;;;;;;5049342;28;20049;-85
2022/12/29 11:23:41;;;;;;;13.10;2.45;;;8.90;91.90;;;;;;5036251;28;20055;-82
2022/12/29 11:26:22;;;;;;;10.02;1.85;;;8.90;91.90;;;;;;5049905;28;20527;-84
2022/12/29 11:29:15;;;;;;;10.85;1.95;;;8.80;91.90;;;;;;5057112;28;20385;-82
2022/12/29 11:31:54;;;;;;;12.25;2.80;;;8.80;91.50;;;;;;5062699;28;20084;-80
2022/12/29 11:34:21;;;;;;;11.90;2.15;;;8.80;91.50;;;;;;5057425;28;20126;-84
2022/12/29 11:36:48;;;;;;;12.68;2.30;;;8.80;91.40;;;;;;5051378;28;20136;-81
2022/12/29 11:39:30;;;;;;;14.20;2.75;;;8.80;91.30;;;;;;5053261;28;20052;-81
2022/12/29 11:41:57;;;;;;;11.90;3.20;;;8.80;91.50;;;;;;5055153;28;20145;-81
2022/12/29 11:44:23;;;;;;;14.43;2.80;;;8.80;91.40;;;;;;5065315;28;20037;-81
2022/12/29 11:46:51;;;;;;;18.15;2.80;;;8.80;91.50;;;;;;5063700;28;20052;-82
2022/12/29 11:49:23;;;;;;;16.48;2.60;;;8.80;91.50;;;;;;5071920;28;20393;-84
2022/12/29 11:51:50;;;;;;;13.38;2.75;;;8.90;91.40;;;;;;5051647;28;20049;-84
2022/12/29 11:54:36;;;;;;;19.27;2.83;;;8.90;91.30;;;;;;5056397;28;20093;-82
2022/12/29 11:57:13;;;;;;;17.85;3.35;;;8.80;91.20;;;;;;5059556;28;20119;-81
2022/12/29 11:59:42;;;;;;;14.88;2.67;;;8.90;91.10;;;;;;5052545;28;20036;-81
2022/12/29 12:02:39;;;;;;;22.52;3.20;;;8.90;91.10;;;;;;5056588;28;20053;-82
2022/12/29 12:05:18;;;;;;;18.80;3.10;;;9.00;91.10;;;;;;5049481;28;20575;-82
2022/12/29 12:07:46;;;;;;;22.13;3.33;;;9.00;90.90;;;;;;5058067;28;20048;-83
2022/12/29 12:10:23;;;;;;;18.85;3.10;;;9.00;91.00;;;;;;5062073;28;20032;-83
2022/12/29 12:12:59;;;;;;;22.70;4.03;;;9.10;91.00;;;;;;5062130;28;21407;-83
2022/12/29 12:15:36;;;;;;;23.23;3.67;;;9.20;90.90;;;;;;5066570;28;20037;-85
2022/12/29 12:18:18;;;;;;;26.73;3.97;;;9.20;90.80;;;;;;5059249;28;20559;-85
2022/12/29 12:21:20;;;;;;;23.55;3.53;;;9.20;90.80;;;;;;5063609;28;20488;-84
2022/12/29 12:23:52;;;;;;;21.10;3.42;;;9.30;90.40;;;;;;5048642;28;20525;-83
2022/12/29 12:26:28;;;;;;;24.52;3.80;;;9.40;90.30;;;;;;5064775;28;20048;-82
2022/12/29 12:29:10;;;;;;;22.98;3.33;;;9.50;90.30;;;;;;5067524;28;21018;-85
2022/12/29 12:31:52;;;;;;;24.20;3.47;;;9.50;90.00;;;;;;5071146;28;20052;-86
2022/12/29 12:34:24;;;;;;;25.63;3.38;;;9.50;89.20;;;;;;5061662;28;20041;-86
2022/12/29 12:37:14;;;;;;;23.50;3.38;;;9.60;89.00;;;;;;5076517;28;20036;-85
2022/12/29 12:40:02;;;;;;;28.98;4.20;;;9.60;89.00;;;;;;5055540;28;20444;-84
2022/12/29 12:42:46;;;;;;;21.80;3.17;;;9.70;89.40;;;;;;5055063;28;20032;-86
2022/12/29 12:45:36;;;;;;;28.70;3.90;;;9.60;89.20;;;;;;5058913;28;20048;-83
2022/12/29 12:48:23;;;;;;;23.27;3.55;;;9.60;88.50;;;;;;5061139;28;20579;-84
2022/12/29 12:51:10;;;;;;;25.90;3.90;;;9.60;88.60;;;;;;5065568;28;20543;-83
2022/12/29 12:53:44;;;;;;;21.00;3.15;;;9.70;88.50;;;;;;5065145;28;20049;-83
2022/12/29 12:56:10;;;;;;;22.05;3.38;;;9.70;88.00;;;;;;5050021;28;20074;-84
2022/12/29 12:58:47;;;;;;;18.23;3.40;;;9.70;87.30;;;;;;5052329;28;20124;-84
2022/12/29 13:01:43;;;;;;;16.08;2.75;;;9.60;87.20;;;;;;5048721;28;20048;-84
2022/12/29 13:04:47;;;;;;;15.77;2.75;;;9.70;86.10;;;;;;5053274;28;20418;-87
2022/12/29 13:07:28;;;;;;;20.40;2.80;;;9.70;84.70;;;;;;5058894;28;20052;-84
2022/12/29 13:10:05;;;;;;;16.45;3.15;;;9.70;85.30;;;;;;5062926;28;20048;-85
2022/12/29 13:12:44;;;;;;;16.73;2.75;;;9.70;85.50;;;;;;5063911;28;20053;-84
2022/12/29 13:15:28;;;;;;;13.27;2.55;;;9.70;84.70;;;;;;5065168;28;20029;-84
2022/12/29 13:18:03;;;;;;;12.55;3.08;;;9.70;84.10;;;;;;5054477;28;20048;-85
2022/12/29 13:21:02;;;;;;;21.48;3.53;;;9.70;84.50;;;;;;5057928;28;20040;-83
2022/12/29 13:23:43;;;;;;;16.75;3.03;;;9.60;84.40;;;;;;5062626;28;20036;-84
2022/12/29 13:26:19;;;;;;;18.08;3.65;;;9.60;84.80;;;;;;5063777;28;20101;-85
2022/12/29 13:29:33;;;;;;;15.40;2.80;;;9.60;85.20;;;;;;5057772;28;20062;-84
2022/12/29 13:32:31;;;;;;;16.85;3.10;;;9.70;84.50;;;;;;5024180;28;20485;-85
2022/12/29 13:35:16;;;;;;;17.80;2.60;;;9.70;83.70;;;;;;5062399;28;20454;-85
2022/12/29 13:38:07;;;;;;;19.25;3.35;;;9.70;83.90;;;;;;5038155;28;20400;-85
2022/12/29 13:40:39;;;;;;;17.13;3.00;;;9.70;83.60;;;;;;5045718;28;20147;-85
2022/12/29 13:43:05;;;;;;;16.25;2.78;;;9.70;84.20;;;;;;5037629;28;20044;-84
2022/12/29 13:45:33;;;;;;;15.05;2.90;;;9.70;83.80;;;;;;5055483;28;20052;-84